This is the latest recevied weather packets stored in our database for station/object LRIA. If no packets are shown the sender has not sent any weather packets the latest 10 day(s).
| Time | Temp. | Humidity | Pressure | Rain* | Wind** | Luminosity | Snow |
|---|---|---|---|---|---|---|---|
| 1777360704 | 11.11° C | 44% | 1019 hPa | - | - | - | - |
| 1777359803 | 11.11° C | 44% | 1019 hPa | - | - | - | - |
| 1777358903 | 10° C | 40% | 1019 hPa | - | - | - | - |
| 1777358026 | 10° C | 40% | 1019 hPa | - | - | - | - |
| 1777357104 | 8.89° C | 50% | 1019 hPa | - | - | - | - |
| 1777356204 | 8.89° C | 50% | 1019 hPa | - | - | - | - |
| 1777355329 | 7.22° C | 57% | 1019 hPa | - | - | - | - |
| 1777354404 | 7.22° C | 57% | 1019 hPa | - | - | - | - |
| 1777353523 | 6.11° C | 61% | 1019 hPa | - | - | - | - |
| 1777352613 | 6.11° C | 61% | 1019 hPa | - | - | - | - |
| 1777351703 | 3.89° C | 65% | 1019 hPa | - | - | - | - |
| 1777350880 | 3.89° C | 65% | 1019 hPa | - | - | - | - |
| 1777349903 | 2.22° C | 75% | 1019 hPa | - | - | - | - |
| 1777349004 | 2.22° C | 75% | 1019 hPa | - | - | - | - |
| 1777348103 | 2.78° C | 65% | 1019 hPa | - | - | - | - |
| 1777347204 | 2.78° C | 65% | 1019 hPa | - | - | - | - |
| 1777346304 | 2.22° C | 65% | 1019 hPa | - | - | - | - |
| 1777345407 | 2.22° C | 65% | 1019 hPa | - | - | - | - |
| 1777344503 | 3.89° C | 61% | 1019 hPa | - | - | - | - |
| 1777343603 | 3.89° C | 61% | 1019 hPa | - | - | - | - |
| 1777342700 | 5° C | 57% | 1019 hPa | - | - | - | - |
| 1777341803 | 5° C | 57% | 1019 hPa | - | - | - | - |
| 1777340903 | 6.11° C | 53% | 1019 hPa | - | - | - | - |
| 1777340010 | 6.11° C | 53% | 1019 hPa | - | - | - | - |
| 1777339103 | 7.22° C | 46% | 1019 hPa | - | - | - | - |
* Rain since midnight (hover to see other rain measurements)
** Current wind speed in m/s (hover to see current wind gust speed)